createdAt,value
2023-05-15T00:00:39.721Z,37.67
2023-05-15T00:03:06.563Z,37.54
2023-05-15T00:05:33.533Z,37.49
2023-05-15T00:08:00.520Z,37.57
2023-05-15T00:10:27.364Z,37.73
2023-05-15T00:12:55.380Z,37.88
2023-05-15T00:15:22.262Z,38.07
2023-05-15T00:17:49.105Z,38.33
2023-05-15T00:20:15.990Z,38.25
2023-05-15T00:22:42.852Z,38.55
2023-05-15T00:25:10.507Z,38.42
2023-05-15T00:27:37.470Z,38.46
2023-05-15T00:30:05.948Z,38.29
2023-05-15T00:32:32.936Z,38.12
2023-05-15T00:34:59.848Z,38.34
2023-05-15T00:37:26.630Z,38.28
2023-05-15T00:39:53.740Z,38.27
2023-05-15T00:42:20.795Z,38.02
2023-05-15T00:44:47.645Z,38.22
2023-05-15T00:47:14.480Z,38.33
2023-05-15T00:49:41.430Z,38.31
2023-05-15T00:52:08.902Z,38.43
2023-05-15T00:54:35.709Z,38.73
2023-05-15T00:57:04.531Z,38.65
2023-05-15T00:59:31.577Z,38.46
2023-05-15T01:01:58.498Z,38.41
2023-05-15T01:04:25.695Z,38.47
2023-05-15T01:06:55.601Z,38.18
2023-05-15T01:09:25.806Z,38.11
2023-05-15T01:11:54.597Z,38.11
2023-05-15T01:14:21.434Z,38.03
2023-05-15T01:16:48.326Z,38.24
2023-05-15T01:19:15.288Z,38.48
2023-05-15T01:21:48.401Z,38.69
2023-05-15T01:25:14.077Z,38.56
2023-05-15T01:27:52.285Z,38.44
2023-05-15T01:30:23.714Z,38.48
2023-05-15T01:33:13.437Z,38.34
2023-05-15T01:35:51.301Z,38.52
2023-05-15T01:38:33.405Z,38.62
2023-05-15T01:41:06.654Z,38.84
2023-05-15T01:43:33.700Z,38.96
2023-05-15T01:46:01.689Z,38.94
2023-05-15T01:48:28.794Z,38.78
2023-05-15T01:50:58.255Z,38.65
2023-05-15T01:53:25.558Z,38.87
2023-05-15T01:55:52.375Z,39.07
2023-05-15T01:58:19.284Z,39.16
2023-05-15T02:00:46.070Z,39.28
2023-05-15T02:03:12.938Z,39.40
2023-05-15T02:05:41.033Z,39.29
2023-05-15T02:08:07.915Z,39.58
2023-05-15T02:10:34.803Z,39.63
2023-05-15T02:13:01.705Z,39.58
2023-05-15T02:15:29.339Z,39.45
2023-05-15T02:17:56.297Z,39.66
2023-05-15T02:20:23.249Z,39.78
2023-05-15T02:22:50.026Z,39.66
2023-05-15T02:25:17.053Z,39.43
2023-05-15T02:27:52.131Z,39.31
2023-05-15T02:30:31.258Z,39.15
2023-05-15T02:33:27.459Z,38.93
2023-05-15T02:35:59.912Z,38.71
2023-05-15T02:38:29.865Z,38.67
2023-05-15T02:40:57.010Z,38.40
2023-05-15T02:43:24.109Z,38.20
2023-05-15T02:45:51.103Z,37.72
2023-05-15T02:48:18.102Z,37.38
2023-05-15T02:50:45.645Z,36.93
2023-05-15T02:53:14.702Z,36.41
2023-05-15T02:55:41.484Z,35.71
2023-05-15T02:58:08.396Z,35.23
2023-05-15T03:00:35.377Z,34.82
2023-05-15T03:03:02.283Z,34.31
2023-05-15T03:05:29.279Z,33.92
2023-05-15T03:07:57.557Z,33.63
2023-05-15T03:10:24.560Z,33.24
2023-05-15T03:12:51.624Z,33.08
2023-05-15T03:15:19.361Z,32.93
2023-05-15T03:17:46.193Z,32.72
2023-05-15T03:20:14.625Z,32.38
2023-05-15T03:22:41.804Z,32.14
2023-05-15T03:25:11.804Z,31.70
2023-05-15T03:27:38.923Z,31.35
2023-05-15T03:30:06.911Z,31.02
2023-05-15T03:32:33.752Z,30.78
2023-05-15T03:35:01.031Z,30.41
2023-05-15T03:37:28.240Z,29.85
2023-05-15T03:39:55.239Z,29.47
2023-05-15T03:42:23.812Z,28.93
2023-05-15T03:44:51.094Z,28.46
2023-05-15T03:47:18.395Z,27.95
2023-05-15T03:49:46.548Z,27.57
2023-05-15T03:52:13.441Z,26.83
2023-05-15T03:54:40.451Z,26.62
2023-05-15T03:57:07.965Z,26.21
2023-05-15T03:59:34.754Z,26.09
2023-05-15T04:02:04.799Z,25.78
2023-05-15T04:04:32.586Z,25.41
2023-05-15T04:07:00.143Z,25.27
2023-05-15T04:09:27.008Z,25.07
2023-05-15T04:11:53.889Z,24.36
2023-05-15T04:14:21.098Z,23.78
2023-05-15T04:16:48.025Z,23.42
2023-05-15T04:19:15.103Z,23.00
2023-05-15T04:21:42.204Z,22.51
2023-05-15T04:24:09.015Z,21.93
2023-05-15T04:26:36.689Z,21.59
2023-05-15T04:29:04.867Z,21.14
2023-05-15T04:31:32.291Z,20.59
2023-05-15T04:33:59.387Z,20.23
2023-05-15T04:36:26.285Z,19.66
2023-05-15T04:38:53.081Z,19.46
2023-05-15T04:41:19.887Z,19.26
2023-05-15T04:43:46.799Z,19.13
2023-05-15T04:46:13.726Z,18.81
2023-05-15T04:48:40.760Z,18.36
2023-05-15T04:51:07.893Z,18.10
2023-05-15T04:53:34.799Z,17.89
2023-05-15T04:56:01.707Z,17.30
2023-05-15T04:58:28.596Z,17.12
2023-05-15T05:00:55.732Z,16.64
2023-05-15T05:03:23.216Z,16.25
2023-05-15T05:05:50.304Z,16.16
2023-05-15T05:08:17.258Z,15.95
2023-05-15T05:10:44.123Z,15.87
2023-05-15T05:13:11.049Z,15.72
2023-05-15T05:15:38.136Z,15.60
2023-05-15T05:18:06.266Z,15.37
2023-05-15T05:20:33.175Z,15.12
2023-05-15T05:23:00.029Z,14.86
2023-05-15T05:25:26.990Z,14.75
2023-05-15T05:27:53.970Z,14.35
2023-05-15T05:30:22.453Z,14.34
2023-05-15T05:32:49.316Z,13.99
2023-05-15T05:35:16.228Z,14.02
2023-05-15T05:37:43.321Z,13.97
2023-05-15T05:40:11.169Z,13.98
2023-05-15T05:42:38.166Z,14.22
2023-05-15T05:45:06.804Z,14.04
2023-05-15T05:47:33.780Z,13.49
2023-05-15T05:50:00.625Z,13.58
2023-05-15T05:52:29.264Z,13.43
2023-05-15T05:54:56.127Z,12.81
2023-05-15T05:57:22.937Z,12.31
2023-05-15T05:59:50.156Z,12.15
2023-05-15T06:02:17.255Z,11.81
2023-05-15T06:04:44.346Z,11.40
2023-05-15T06:07:11.266Z,11.59
2023-05-15T06:09:38.146Z,11.36
2023-05-15T06:12:05.788Z,11.39
2023-05-15T06:14:32.687Z,10.91
2023-05-15T06:17:00.722Z,10.88
2023-05-15T06:19:27.610Z,10.79
2023-05-15T06:21:54.693Z,10.64
2023-05-15T06:24:21.523Z,10.59
2023-05-15T06:26:49.636Z,10.25
2023-05-15T06:29:17.665Z,10.63
2023-05-15T06:31:44.482Z,10.55
2023-05-15T06:34:11.274Z,10.46
2023-05-15T06:36:38.199Z,9.82
2023-05-15T06:39:05.611Z,10.05
2023-05-15T06:41:33.130Z,9.85
2023-05-15T06:44:00.116Z,9.73
2023-05-15T06:46:26.895Z,9.68
2023-05-15T06:48:53.787Z,9.39
2023-05-15T06:51:20.691Z,9.25
2023-05-15T06:53:47.474Z,9.05
2023-05-15T06:56:14.354Z,8.65
2023-05-15T06:58:41.132Z,8.54
2023-05-15T07:01:09.554Z,8.18
2023-05-15T07:03:36.444Z,8.03
2023-05-15T07:06:03.384Z,7.85
2023-05-15T07:08:30.193Z,7.87
2023-05-15T07:10:57.136Z,7.80
2023-05-15T07:13:23.920Z,7.72
2023-05-15T07:15:50.797Z,7.64
2023-05-15T07:18:18.164Z,7.93
2023-05-15T07:20:45.124Z,8.29
2023-05-15T07:23:11.986Z,7.91
2023-05-15T07:25:38.831Z,7.96
2023-05-15T07:28:05.650Z,7.86
2023-05-15T07:30:32.500Z,7.77
2023-05-15T07:32:59.420Z,8.04
2023-05-15T07:35:26.654Z,8.04
2023-05-15T07:37:53.839Z,8.16
2023-05-15T07:40:20.737Z,8.47
2023-05-15T07:42:47.699Z,9.07
2023-05-15T07:45:14.568Z,9.04
2023-05-15T07:47:50.711Z,9.14
2023-05-15T07:50:17.703Z,9.17
2023-05-15T07:52:44.638Z,9.36
2023-05-15T07:55:11.671Z,9.65
2023-05-15T07:57:42.703Z,9.68
2023-05-15T08:00:13.638Z,10.07
2023-05-15T08:02:41.302Z,10.57
2023-05-15T08:05:08.357Z,11.20
2023-05-15T08:07:35.282Z,10.94
2023-05-15T08:10:04.289Z,10.36
2023-05-15T08:12:31.189Z,10.51
2023-05-15T08:14:58.056Z,10.57
2023-05-15T08:17:25.031Z,11.21
2023-05-15T08:19:52.331Z,11.72
2023-05-15T08:22:19.237Z,12.23
2023-05-15T08:24:46.031Z,12.70
2023-05-15T08:27:12.786Z,12.48
2023-05-15T08:29:40.046Z,12.67
2023-05-15T08:32:07.785Z,12.71
2023-05-15T08:34:34.689Z,12.80
2023-05-15T08:37:01.760Z,12.77
2023-05-15T08:39:28.899Z,12.60
2023-05-15T08:42:19.372Z,12.35
2023-05-15T08:44:46.235Z,12.35
2023-05-15T08:47:14.448Z,12.56
2023-05-15T08:50:04.973Z,12.91
2023-05-15T08:52:32.810Z,12.90
2023-05-15T08:55:00.157Z,12.58
2023-05-15T08:57:28.169Z,12.51
2023-05-15T08:59:55.244Z,12.79
2023-05-15T09:02:22.650Z,13.24
2023-05-15T09:04:49.541Z,13.26
2023-05-15T09:07:17.405Z,13.53
2023-05-15T09:09:47.505Z,13.44
2023-05-15T09:12:17.457Z,13.73
2023-05-15T09:14:44.326Z,13.43
2023-05-15T09:17:11.936Z,13.14
2023-05-15T09:19:40.030Z,13.04
2023-05-15T09:22:26.156Z,12.92
2023-05-15T09:24:58.170Z,12.74
2023-05-15T09:27:25.042Z,12.10
2023-05-15T09:29:54.428Z,11.98
2023-05-15T09:32:21.479Z,12.07
2023-05-15T09:34:54.775Z,12.43
2023-05-15T09:37:32.058Z,12.27
2023-05-15T09:40:11.851Z,12.16
2023-05-15T09:42:38.871Z,12.23
2023-05-15T09:45:06.752Z,12.46
2023-05-15T09:47:34.025Z,12.56
2023-05-15T09:50:01.384Z,12.75
2023-05-15T09:52:28.931Z,12.64
2023-05-15T09:54:56.566Z,12.78
2023-05-15T09:57:23.550Z,12.41
2023-05-15T09:59:50.462Z,12.39
2023-05-15T10:02:24.813Z,12.71
2023-05-15T10:04:56.609Z,12.78
2023-05-15T10:07:36.389Z,12.53
2023-05-15T10:10:04.614Z,11.95
2023-05-15T10:12:32.364Z,11.76
2023-05-15T10:15:00.206Z,11.67
2023-05-15T10:17:28.556Z,11.89
2023-05-15T10:19:58.362Z,11.66
2023-05-15T10:22:29.126Z,11.83
2023-05-15T10:25:43.744Z,12.04
2023-05-15T10:28:11.345Z,12.53
2023-05-15T10:30:38.576Z,12.61
2023-05-15T10:33:06.750Z,12.53
2023-05-15T10:35:38.195Z,12.94
2023-05-15T10:38:05.633Z,12.96
2023-05-15T10:40:33.442Z,12.94
2023-05-15T10:43:03.199Z,12.98
2023-05-15T10:45:30.292Z,12.97
2023-05-15T10:47:57.187Z,12.84
2023-05-15T10:50:24.139Z,12.73
2023-05-15T10:52:52.015Z,12.75
2023-05-15T10:55:18.925Z,12.60
2023-05-15T10:57:47.040Z,12.29
2023-05-15T11:00:31.723Z,12.02
2023-05-15T11:03:07.381Z,12.18
2023-05-15T11:06:09.785Z,12.98
2023-05-15T11:08:37.878Z,12.47
2023-05-15T11:11:05.247Z,12.58
2023-05-15T11:15:12.559Z,14.23
2023-05-15T11:17:39.625Z,13.60
2023-05-15T11:20:07.250Z,13.28
2023-05-15T11:22:38.812Z,13.68
2023-05-15T11:25:16.140Z,14.02
2023-05-15T11:27:44.681Z,14.04
2023-05-15T11:30:20.926Z,13.64
2023-05-15T11:32:47.801Z,13.59
2023-05-15T11:35:25.252Z,13.68
2023-05-15T11:37:54.440Z,13.85
2023-05-15T11:40:26.661Z,13.84
2023-05-15T11:43:07.711Z,14.34
2023-05-15T11:45:38.878Z,14.00
2023-05-15T11:48:07.564Z,13.48
2023-05-15T11:50:35.446Z,13.43
2023-05-15T11:53:04.667Z,13.18
2023-05-15T11:55:32.924Z,13.36
2023-05-15T11:58:00.883Z,13.21
2023-05-15T12:00:27.892Z,13.08
2023-05-15T12:02:54.896Z,12.99
2023-05-15T12:05:22.361Z,13.18
2023-05-15T12:07:49.281Z,12.96
2023-05-15T12:10:16.121Z,13.18
2023-05-15T12:12:43.728Z,13.10
2023-05-15T12:15:12.157Z,13.26
2023-05-15T12:17:40.232Z,13.66
2023-05-15T12:20:17.964Z,13.07
2023-05-15T12:22:45.301Z,13.08
2023-05-15T12:25:12.801Z,12.75
2023-05-15T12:27:40.152Z,12.86
2023-05-15T12:30:07.792Z,12.92
2023-05-15T12:32:36.341Z,13.13
2023-05-15T12:35:05.093Z,13.20
2023-05-15T12:37:33.926Z,13.81
2023-05-15T12:40:02.442Z,13.94
2023-05-15T12:42:29.372Z,13.58
2023-05-15T12:44:58.043Z,13.51
2023-05-15T12:47:28.351Z,13.29
2023-05-15T12:49:56.869Z,13.68
2023-05-15T12:52:23.917Z,13.74
2023-05-15T12:54:50.909Z,13.78
2023-05-15T12:57:17.736Z,13.79
2023-05-15T12:59:44.620Z,13.78
2023-05-15T13:02:12.251Z,13.62
2023-05-15T13:04:39.461Z,13.37
2023-05-15T13:07:06.665Z,13.35
2023-05-15T13:09:35.411Z,13.25
2023-05-15T13:12:03.807Z,13.64
2023-05-15T13:14:34.559Z,13.80
2023-05-15T13:17:03.022Z,13.56
2023-05-15T13:19:29.898Z,13.81
2023-05-15T13:21:57.731Z,13.71
2023-05-15T13:24:24.536Z,14.13
2023-05-15T13:26:52.741Z,14.64
2023-05-15T13:29:19.853Z,14.59
2023-05-15T13:31:47.073Z,13.50
2023-05-15T13:34:14.151Z,13.28
2023-05-15T13:36:41.161Z,13.07
2023-05-15T13:39:08.162Z,13.03
2023-05-15T13:41:36.841Z,13.34
2023-05-15T13:44:03.834Z,13.57
2023-05-15T13:46:30.711Z,13.69
2023-05-15T13:48:57.616Z,12.94
2023-05-15T13:51:24.532Z,12.60
2023-05-15T13:53:51.414Z,12.53
2023-05-15T13:56:18.438Z,12.31
2023-05-15T13:58:45.653Z,12.24
2023-05-15T14:01:12.604Z,12.19
2023-05-15T14:03:39.719Z,12.44
2023-05-15T14:06:07.165Z,12.07
2023-05-15T14:08:34.013Z,12.21
2023-05-15T14:11:01.587Z,11.97
2023-05-15T14:13:31.776Z,11.93
2023-05-15T14:15:58.815Z,12.05
2023-05-15T14:18:26.299Z,12.09
2023-05-15T14:20:53.192Z,12.16
2023-05-15T14:23:20.091Z,12.03
2023-05-15T14:25:46.890Z,12.03
2023-05-15T14:28:13.888Z,12.27
2023-05-15T14:30:40.667Z,12.13
2023-05-15T14:33:07.603Z,12.14
2023-05-15T14:35:34.564Z,12.22
2023-05-15T14:38:01.504Z,12.00
2023-05-15T14:40:28.365Z,12.18
2023-05-15T14:42:55.301Z,12.17
2023-05-15T14:45:22.356Z,12.15
2023-05-15T14:47:49.209Z,12.17
2023-05-15T14:50:16.286Z,12.35
2023-05-15T14:52:43.087Z,12.25
2023-05-15T14:55:10.286Z,12.19
2023-05-15T14:57:37.936Z,11.98
2023-05-15T15:00:06.756Z,12.14
2023-05-15T15:02:34.233Z,11.98
2023-05-15T15:05:01.171Z,12.13
2023-05-15T15:07:29.625Z,12.10
2023-05-15T15:09:56.411Z,12.16
2023-05-15T15:12:23.318Z,12.51
2023-05-15T15:14:50.253Z,12.51
2023-05-15T15:17:17.231Z,12.45
2023-05-15T15:19:44.177Z,12.22
2023-05-15T15:22:11.226Z,12.30
2023-05-15T15:24:38.153Z,12.48
2023-05-15T15:27:05.444Z,12.42
2023-05-15T15:29:32.369Z,12.42
2023-05-15T15:31:59.186Z,12.64
2023-05-15T15:34:26.962Z,12.87
2023-05-15T15:36:53.753Z,12.78
2023-05-15T15:39:21.090Z,12.91
2023-05-15T15:41:47.976Z,13.06
2023-05-15T15:44:14.977Z,12.94
2023-05-15T15:46:41.874Z,13.28
2023-05-15T15:49:08.777Z,13.20
2023-05-15T15:51:35.605Z,13.18
2023-05-15T15:54:02.475Z,13.04
2023-05-15T15:56:29.370Z,13.13
2023-05-15T15:58:56.166Z,13.04
2023-05-15T16:01:23.458Z,13.15
2023-05-15T16:03:50.419Z,13.25
2023-05-15T16:06:17.384Z,13.50
2023-05-15T16:08:44.334Z,13.50
2023-05-15T16:11:11.178Z,13.45
2023-05-15T16:13:40.298Z,13.41
2023-05-15T16:16:08.150Z,13.43
2023-05-15T16:18:35.455Z,13.42
2023-05-15T16:21:02.397Z,13.54
2023-05-15T16:23:32.968Z,13.55
2023-05-15T16:25:59.768Z,13.58
2023-05-15T16:28:26.708Z,13.63
2023-05-15T16:30:53.647Z,13.73
2023-05-15T16:33:20.885Z,14.14
2023-05-15T16:35:47.826Z,13.81
2023-05-15T16:38:14.775Z,14.02
2023-05-15T16:40:41.817Z,14.06
2023-05-15T16:43:09.097Z,14.03
2023-05-15T16:45:35.888Z,14.24
2023-05-15T16:48:02.815Z,14.24
2023-05-15T16:50:31.693Z,14.41
2023-05-15T16:52:59.060Z,14.62
2023-05-15T16:55:26.087Z,14.57
2023-05-15T16:57:52.960Z,14.55
2023-05-15T17:00:21.183Z,14.71
2023-05-15T17:02:48.760Z,14.88
2023-05-15T17:05:15.844Z,14.83
2023-05-15T17:07:43.364Z,15.08
2023-05-15T17:10:11.413Z,15.16
2023-05-15T17:12:38.369Z,15.13
2023-05-15T17:15:06.280Z,15.23
2023-05-15T17:17:33.214Z,15.50
2023-05-15T17:20:02.414Z,15.74
2023-05-15T17:22:29.876Z,15.88
2023-05-15T17:24:57.137Z,15.91
2023-05-15T17:27:24.657Z,16.20
2023-05-15T17:29:51.564Z,16.25
2023-05-15T17:32:18.989Z,16.37
2023-05-15T17:34:46.336Z,16.48
2023-05-15T17:37:13.131Z,16.62
2023-05-15T17:39:40.090Z,16.71
2023-05-15T17:42:06.960Z,16.78
2023-05-15T17:44:33.837Z,16.90
2023-05-15T17:47:00.920Z,17.08
2023-05-15T17:49:28.069Z,17.00
2023-05-15T17:51:54.845Z,17.07
2023-05-15T17:54:21.759Z,17.25
2023-05-15T17:56:48.725Z,17.17
2023-05-15T17:59:16.283Z,17.20
2023-05-15T18:01:43.268Z,17.40
2023-05-15T18:04:10.797Z,17.43
2023-05-15T18:06:38.100Z,17.48
2023-05-15T18:09:05.302Z,17.55
2023-05-15T18:11:32.435Z,17.63
2023-05-15T18:13:59.447Z,17.72
2023-05-15T18:16:26.542Z,17.79
2023-05-15T18:18:53.733Z,17.71
2023-05-15T18:21:20.851Z,17.85
2023-05-15T18:23:47.683Z,17.91
2023-05-15T18:26:14.533Z,18.00
2023-05-15T18:28:41.432Z,18.00
2023-05-15T18:31:08.501Z,17.90
2023-05-15T18:33:35.530Z,18.13
2023-05-15T18:36:03.150Z,18.05
2023-05-15T18:38:31.052Z,18.16
2023-05-15T18:40:57.878Z,18.11
2023-05-15T18:43:24.823Z,18.14
2023-05-15T18:45:51.685Z,18.35
2023-05-15T18:48:18.526Z,18.52
2023-05-15T18:50:45.572Z,18.49
2023-05-15T18:53:12.479Z,18.36
2023-05-15T18:55:39.602Z,18.58
2023-05-15T18:58:06.607Z,18.71
2023-05-15T19:00:38.652Z,18.85
2023-05-15T19:03:08.304Z,18.93
2023-05-15T19:05:35.553Z,18.87
2023-05-15T19:08:02.931Z,19.13
2023-05-15T19:10:30.739Z,19.10
2023-05-15T19:12:57.902Z,19.32
2023-05-15T19:15:24.913Z,19.46
2023-05-15T19:17:52.010Z,19.47
2023-05-15T19:20:19.415Z,19.61
2023-05-15T19:22:46.450Z,19.55
2023-05-15T19:25:13.328Z,19.78
2023-05-15T19:27:40.416Z,19.78
2023-05-15T19:30:09.324Z,20.04
2023-05-15T19:32:36.607Z,20.22
2023-05-15T19:35:03.895Z,20.29
2023-05-15T19:37:30.677Z,20.44
2023-05-15T19:39:57.462Z,20.48
2023-05-15T19:42:24.272Z,20.53
2023-05-15T19:44:51.156Z,20.94
2023-05-15T19:47:18.042Z,21.06
2023-05-15T19:49:45.685Z,21.05
2023-05-15T19:52:12.556Z,20.89
2023-05-15T19:54:39.479Z,21.08
2023-05-15T19:57:06.376Z,21.31
2023-05-15T19:59:33.171Z,21.35
2023-05-15T20:02:01.700Z,21.55
2023-05-15T20:04:29.127Z,21.54
2023-05-15T20:06:55.970Z,21.70
2023-05-15T20:09:22.725Z,22.00
2023-05-15T20:11:49.646Z,21.87
2023-05-15T20:14:16.794Z,22.07
2023-05-15T20:16:43.736Z,22.00
2023-05-15T20:19:11.222Z,21.94
2023-05-15T20:21:38.907Z,22.10
2023-05-15T20:24:07.134Z,22.10
2023-05-15T20:26:36.134Z,22.19
2023-05-15T20:29:03.816Z,22.33
2023-05-15T20:31:30.943Z,22.28
2023-05-15T20:33:59.252Z,22.02
2023-05-15T20:36:26.228Z,22.09
2023-05-15T20:38:53.253Z,22.29
2023-05-15T20:41:22.831Z,22.37
2023-05-15T20:43:50.027Z,22.30
2023-05-15T20:46:17.188Z,22.39
2023-05-15T20:48:44.350Z,22.27
2023-05-15T20:51:11.246Z,22.23
2023-05-15T20:53:38.028Z,22.30
2023-05-15T20:56:05.033Z,22.11
2023-05-15T20:58:31.854Z,22.07
2023-05-15T21:01:01.259Z,22.07
2023-05-15T21:03:29.204Z,22.11
2023-05-15T21:05:57.540Z,21.91
2023-05-15T21:08:24.934Z,22.30
2023-05-15T21:10:55.516Z,22.31
2023-05-15T21:13:22.482Z,22.03
2023-05-15T21:15:49.286Z,22.05
2023-05-15T21:18:16.380Z,22.07
2023-05-15T21:20:43.296Z,22.04
2023-05-15T21:23:10.074Z,22.12
2023-05-15T21:25:37.842Z,22.11
2023-05-15T21:28:04.816Z,22.22
2023-05-15T21:30:31.812Z,22.31
2023-05-15T21:32:59.383Z,22.42
2023-05-15T21:35:29.055Z,22.31
2023-05-15T21:37:56.115Z,22.38
2023-05-15T21:40:23.070Z,22.39
2023-05-15T21:42:50.127Z,22.54
2023-05-15T21:45:17.540Z,22.52
2023-05-15T21:47:44.396Z,22.47
2023-05-15T21:50:11.524Z,22.42
2023-05-15T21:52:38.365Z,22.54
2023-05-15T21:55:06.001Z,22.59
2023-05-15T21:57:33.150Z,22.76
2023-05-15T22:00:00.221Z,22.62
2023-05-15T22:02:27.231Z,23.07
2023-05-15T22:04:54.592Z,22.83
2023-05-15T22:07:21.901Z,23.14
2023-05-15T22:09:48.887Z,23.00
2023-05-15T22:12:15.807Z,23.08
2023-05-15T22:14:54.464Z,23.16
2023-05-15T22:17:26.558Z,23.28
2023-05-15T22:19:53.681Z,23.18
2023-05-15T22:22:20.999Z,23.27
2023-05-15T22:24:48.275Z,23.16
2023-05-15T22:27:16.877Z,23.24
2023-05-15T22:29:43.980Z,23.44
2023-05-15T22:32:10.918Z,23.49
2023-05-15T22:34:37.775Z,23.69
2023-05-15T22:37:05.159Z,23.77
2023-05-15T22:39:33.071Z,23.83
2023-05-15T22:41:59.905Z,23.87
2023-05-15T22:44:26.765Z,24.02
2023-05-15T22:46:53.599Z,24.16
2023-05-15T22:49:25.385Z,24.36
2023-05-15T22:51:53.675Z,24.39
2023-05-15T22:54:23.116Z,24.26
2023-05-15T22:56:51.489Z,24.41
2023-05-15T22:59:18.664Z,24.46
2023-05-15T23:01:46.442Z,24.42
2023-05-15T23:04:13.825Z,24.39
2023-05-15T23:06:41.228Z,24.50
2023-05-15T23:09:08.636Z,24.44
2023-05-15T23:11:35.649Z,24.47
2023-05-15T23:14:03.156Z,24.48
2023-05-15T23:16:30.094Z,24.58
2023-05-15T23:18:57.970Z,24.55
2023-05-15T23:21:24.994Z,24.65
2023-05-15T23:23:51.784Z,24.73
2023-05-15T23:26:18.604Z,24.60
2023-05-15T23:28:45.395Z,24.59
2023-05-15T23:33:03.892Z,26.19
2023-05-15T23:35:30.816Z,25.14
2023-05-15T23:37:57.619Z,24.91
2023-05-15T23:40:24.729Z,24.98
2023-05-15T23:42:51.837Z,24.80
2023-05-15T23:45:18.727Z,24.98
2023-05-15T23:47:46.759Z,24.89
2023-05-15T23:50:13.673Z,25.08
2023-05-15T23:52:41.055Z,25.10
2023-05-15T23:55:08.397Z,25.21
2023-05-15T23:57:35.290Z,25.08
